Rankings de siempre
Mejores tiempos personales válidos de atleta a través de todos los eventos y temporadas. Cada atleta aparece una vez por división.
Busca por nombre y abre la página donde está clasificado este récord de división.
179,683 atletas clasificados
| Pos. | Pos. AG | Atleta | Nacionalidad | Categoría de edad | TiempoMejor tiempo | Diferencia |
|---|---|---|---|---|---|---|
| 14726 | #3956 | Zidan AkersGBR · M 25-29 · AG #3956 | GBR | M 25-29 | 1:09:46 | +19:08 |
| 14727 | #3960 | Nathan HaagFRA · M 25-29 · AG #3960 | FRA | M 25-29 | 1:09:46 | +19:08 |
| 14728 | #4506 | James KINSEYUSA · M 30-34 · AG #4506 | USA | M 30-34 | 1:09:46 | +19:08 |
| 14729 | #3964 | Johannes BablGER · M 25-29 · AG #3964 | GER | M 25-29 | 1:09:46 | +19:08 |
| 14730 | #4508 | Joscha KomarekGER · M 30-34 · AG #4508 | GER | M 30-34 | 1:09:46 | +19:08 |
| 14731 | #1847 | Jack HulmeGBR · M 16-24 · AG #1847 | GBR | M 16-24 | 1:09:46 | +19:08 |
| 14732 | #3105 | Lucas MedeirosBRA · M 35-39 · AG #3105 | BRA | M 35-39 | 1:09:46 | +19:08 |
| 14733 | #1528 | Simon CarterGBR · M 40-44 · AG #1528 | GBR | M 40-44 | 1:09:46 | +19:08 |
| 14734 | #4509 | Daniel OchseRSA · M 30-34 · AG #4509 | RSA | M 30-34 | 1:09:46 | +19:08 |
| 14735 | #3963 | Rob KnappUSA · M 25-29 · AG #3963 | USA | M 25-29 | 1:09:46 | +19:08 |
| 14736 | #4507 | Boris Le GofficFRA · M 30-34 · AG #4507 | FRA | M 30-34 | 1:09:46 | +19:08 |
| 14737 | #1532 | Roberto Saavedra De LeonMEX · M 40-44 · AG #1532 | MEX | M 40-44 | 1:09:46 | +19:08 |
| 14738 | #3106 | Daniel GaleGBR · M 35-39 · AG #3106 | GBR | M 35-39 | 1:09:46 | +19:08 |
| 14739 | #1842 | Julian AnzenbergerGER · M 16-24 · AG #1842 | GER | M 16-24 | 1:09:46 | +19:08 |
| 14740 | #4504 | Mateusz PietrzakPOL · M 30-34 · AG #4504 | POL | M 30-34 | 1:09:46 | +19:08 |
| 14741 | #3952 | Albert Jan BaronNED · M 25-29 · AG #3952 | NED | M 25-29 | 1:09:46 | +19:08 |
| 14742 | #1530 | WOJCIECH TATARPOL · M 40-44 · AG #1530 | POL | M 40-44 | 1:09:46 | +19:08 |
| 14743 | #4503 | Romain KlocFRA · M 30-34 · AG #4503 | FRA | M 30-34 | 1:09:46 | +19:08 |
| 14744 | #3966 | MICKAEL ROSSIFRA · M 25-29 · AG #3966 | FRA | M 25-29 | 1:09:46 | +19:08 |
| 14745 | #3965 | James TeagueGBR · M 25-29 · AG #3965 | GBR | M 25-29 | 1:09:46 | +19:08 |
| 14746 | #4512 | Arkaitz Cangas AparicioESP · M 30-34 · AG #4512 | ESP | M 30-34 | 1:09:47 | +19:09 |
| 14747 | #3108 | Ruben Rodenas bonetESP · M 35-39 · AG #3108 | ESP | M 35-39 | 1:09:47 | +19:09 |
| 14748 | #594 | Dennis GerritzenNED · M 45-49 · AG #594 | NED | M 45-49 | 1:09:47 | +19:09 |
| 14749 | #4513 | Andrew LuceroUSA · M 30-34 · AG #4513 | USA | M 30-34 | 1:09:47 | +19:09 |
| 14750 | #4511 | Joschka SchlichtGER · M 30-34 · AG #4511 | GER | M 30-34 | 1:09:47 | +19:09 |
Página 590 de 7,188